createdAt,value
2023-05-14T00:08:52.710Z,20.66
2023-05-14T00:18:54.049Z,20.68
2023-05-14T00:28:55.309Z,20.61
2023-05-14T00:38:56.593Z,20.64
2023-05-14T00:48:57.824Z,20.72
2023-05-14T00:58:59.065Z,20.66
2023-05-14T01:09:00.282Z,20.67
2023-05-14T01:19:01.611Z,20.67
2023-05-14T01:29:02.870Z,20.68
2023-05-14T01:39:04.096Z,20.73
2023-05-14T01:49:05.379Z,20.62
2023-05-14T01:59:07.746Z,20.69
2023-05-14T02:09:08.990Z,20.62
2023-05-14T02:19:10.301Z,20.53
2023-05-14T02:29:11.619Z,20.55
2023-05-14T02:39:12.902Z,20.44
2023-05-14T02:49:14.168Z,20.58
2023-05-14T02:59:15.383Z,20.44
2023-05-14T03:09:17.066Z,20.45
2023-05-14T03:19:18.354Z,20.41
2023-05-14T03:29:19.638Z,20.50
2023-05-14T03:39:20.898Z,20.53
2023-05-14T03:49:22.136Z,20.42
2023-05-14T03:59:23.382Z,20.35
2023-05-14T04:09:24.620Z,20.32
2023-05-14T04:19:26.293Z,20.40
2023-05-14T04:29:27.539Z,20.34
2023-05-14T04:39:28.795Z,20.29
2023-05-14T04:49:30.060Z,20.29
2023-05-14T04:59:31.321Z,20.46
2023-05-14T05:09:32.580Z,20.58
2023-05-14T05:19:43.211Z,20.81
2023-05-14T05:29:45.246Z,20.92
2023-05-14T05:39:46.476Z,20.91
2023-05-14T05:49:47.710Z,21.04
2023-05-14T05:59:48.958Z,21.11
2023-05-14T06:09:50.252Z,21.12
2023-05-14T06:19:52.791Z,21.19
2023-05-14T06:29:54.060Z,21.10
2023-05-14T06:39:57.676Z,21.05
2023-05-14T06:49:59.140Z,21.07
2023-05-14T07:00:02.828Z,21.26
2023-05-14T07:10:04.648Z,21.43
2023-05-14T07:20:05.898Z,21.53
2023-05-14T07:30:07.155Z,21.57
2023-05-14T07:40:08.463Z,21.66
2023-05-14T07:50:09.825Z,21.71
2023-05-14T08:00:14.881Z,21.74
2023-05-14T08:10:24.077Z,21.71
2023-05-14T08:20:33.140Z,21.55
2023-05-14T08:30:34.691Z,21.55
2023-05-14T08:40:37.482Z,21.49
2023-05-14T08:50:38.733Z,21.48
2023-05-14T09:00:41.449Z,21.47
2023-05-14T09:10:51.964Z,21.48
2023-05-14T09:20:59.407Z,21.45
2023-05-14T09:31:07.427Z,21.48
2023-05-14T09:51:37.943Z,21.45
2023-05-14T10:01:39.284Z,21.49
2023-05-14T10:11:40.588Z,21.48
2023-05-14T10:32:03.908Z,21.51
2023-05-14T10:42:05.169Z,21.53
2023-05-14T10:52:14.201Z,21.50
2023-05-14T11:02:22.464Z,21.52
2023-05-14T11:12:30.410Z,21.54
2023-05-14T11:22:38.482Z,21.56
2023-05-14T11:32:46.476Z,21.57
2023-05-14T11:42:54.473Z,21.59
2023-05-14T11:53:02.471Z,21.56
2023-05-14T12:03:10.475Z,21.60
2023-05-14T12:13:20.987Z,21.64
2023-05-14T12:33:48.992Z,21.62
2023-05-14T12:43:50.237Z,21.58
2023-05-14T12:53:51.489Z,21.65
2023-05-14T13:04:00.484Z,21.64
2023-05-14T13:14:08.547Z,21.70
2023-05-14T13:24:16.459Z,21.68
2023-05-14T13:34:25.502Z,21.72
2023-05-14T13:44:33.571Z,21.77
2023-05-14T13:54:41.468Z,21.80
2023-05-14T14:04:49.557Z,21.83
2023-05-14T14:14:58.463Z,21.77
2023-05-14T14:25:06.434Z,21.77
2023-05-14T14:35:14.467Z,21.75
2023-05-14T14:45:25.897Z,21.76
2023-05-14T14:55:33.435Z,21.70
2023-05-14T15:05:41.507Z,21.69
2023-05-14T15:15:49.482Z,21.63
2023-05-14T15:25:57.512Z,21.70
2023-05-14T15:36:06.278Z,21.72
2023-05-14T15:46:15.116Z,21.71
2023-05-14T15:56:22.481Z,21.74
2023-05-14T16:06:30.486Z,21.73
2023-05-14T16:16:38.575Z,21.77
2023-05-14T16:26:46.480Z,21.78
2023-05-14T16:36:54.523Z,21.77
2023-05-14T16:47:02.504Z,21.79
2023-05-14T16:57:10.522Z,21.80
2023-05-14T17:07:18.491Z,21.78
2023-05-14T17:27:48.614Z,21.76
2023-05-14T17:37:49.894Z,21.75
2023-05-14T17:47:51.601Z,21.75
2023-05-14T18:08:21.914Z,21.70
2023-05-14T18:18:23.550Z,21.74
2023-05-14T18:28:26.651Z,21.76
2023-05-14T18:38:34.511Z,21.77
2023-05-14T18:48:42.535Z,21.69
2023-05-14T18:58:43.818Z,21.67
2023-05-14T19:08:45.072Z,21.62
2023-05-14T19:18:46.360Z,21.61
2023-05-14T19:28:47.597Z,21.60
2023-05-14T19:38:48.915Z,21.61
2023-05-14T19:48:50.141Z,21.56
2023-05-14T19:58:51.343Z,21.51
2023-05-14T20:08:52.598Z,21.55
2023-05-14T20:18:53.965Z,21.48
2023-05-14T20:28:55.252Z,21.50
2023-05-14T20:38:56.513Z,21.45
2023-05-14T20:48:57.766Z,21.45
2023-05-14T20:58:59.066Z,21.40
2023-05-14T21:09:00.373Z,21.41
2023-05-14T21:19:01.669Z,21.38
2023-05-14T21:29:02.990Z,21.36
2023-05-14T21:39:04.244Z,21.32
2023-05-14T21:49:05.522Z,21.32
2023-05-14T21:59:06.801Z,21.33
2023-05-14T22:09:08.058Z,21.28
2023-05-14T22:19:09.381Z,21.29
2023-05-14T22:29:10.627Z,21.20
2023-05-14T22:39:13.474Z,21.22
2023-05-14T22:49:15.012Z,21.13
2023-05-14T22:59:16.273Z,21.12
2023-05-14T23:09:17.558Z,21.04
2023-05-14T23:19:18.933Z,21.05
2023-05-14T23:29:20.266Z,21.05
2023-05-14T23:39:21.518Z,21.08
2023-05-14T23:49:22.793Z,21.00
2023-05-14T23:59:24.057Z,20.96
